createdAt,value
2023-05-09T00:00:18.031Z,96784.06
2023-05-09T00:02:47.952Z,96780.34
2023-05-09T00:05:15.961Z,96781.38
2023-05-09T00:07:43.950Z,96773.22
2023-05-09T00:10:11.955Z,96778.44
2023-05-09T00:12:39.781Z,96783.03
2023-05-09T00:15:09.312Z,96785.88
2023-05-09T00:17:38.493Z,96763.38
2023-05-09T00:20:12.419Z,96773.97
2023-05-09T00:22:41.137Z,96775.78
2023-05-09T00:25:10.474Z,96769.56
2023-05-09T00:27:38.491Z,96766.06
2023-05-09T00:30:07.332Z,96762.59
2023-05-09T00:32:35.734Z,96768.66
2023-05-09T00:35:03.697Z,96769.44
2023-05-09T00:37:32.847Z,96767.53
2023-05-09T00:40:00.610Z,96750.84
2023-05-09T00:42:28.420Z,96759.97
2023-05-09T00:44:56.169Z,96752.56
2023-05-09T00:47:24.885Z,96756.28
2023-05-09T00:49:52.710Z,96752.88
2023-05-09T00:52:23.415Z,96746.34
2023-05-09T00:54:53.218Z,96735.28
2023-05-09T00:57:21.023Z,96737.47
2023-05-09T00:59:48.847Z,96746.44
2023-05-09T01:02:18.263Z,96739.00
2023-05-09T01:04:46.968Z,96743.69
2023-05-09T01:07:20.465Z,96737.75
2023-05-09T01:09:56.102Z,96725.31
2023-05-09T01:12:31.362Z,96721.72
2023-05-09T01:15:04.905Z,96737.28
2023-05-09T01:17:40.003Z,96722.22
2023-05-09T01:20:15.720Z,96722.41
2023-05-09T01:22:48.320Z,96730.53
2023-05-09T01:25:39.068Z,96722.00
2023-05-09T01:28:15.327Z,96712.22
2023-05-09T01:30:48.014Z,96710.69
2023-05-09T01:33:20.381Z,96700.91
2023-05-09T01:35:52.565Z,96698.66
2023-05-09T01:38:24.901Z,96701.97
2023-05-09T01:40:55.179Z,96644.56
2023-05-09T01:43:26.701Z,96704.13
2023-05-09T01:45:57.103Z,96691.19
2023-05-09T01:48:27.102Z,96685.88
2023-05-09T01:50:55.828Z,96675.25
2023-05-09T01:53:25.767Z,96689.22
2023-05-09T01:55:53.946Z,96686.88
2023-05-09T01:58:23.156Z,96694.94
2023-05-09T02:00:52.150Z,96690.13
2023-05-09T02:03:22.357Z,96679.63
2023-05-09T02:05:51.592Z,96692.47
2023-05-09T02:08:21.752Z,96697.66
2023-05-09T02:10:50.159Z,96689.47
2023-05-09T02:13:18.331Z,96700.22
2023-05-09T02:15:46.535Z,96702.09
2023-05-09T02:18:14.313Z,96701.31
2023-05-09T02:20:43.520Z,96681.06
2023-05-09T02:23:11.524Z,96693.47
2023-05-09T02:25:40.687Z,96698.38
2023-05-09T02:28:10.036Z,96681.06
2023-05-09T02:30:42.309Z,96687.63
2023-05-09T02:33:12.713Z,96687.50
2023-05-09T02:35:43.099Z,96673.03
2023-05-09T02:38:13.141Z,96674.50
2023-05-09T02:40:43.412Z,96679.94
2023-05-09T02:43:11.501Z,96685.72
2023-05-09T02:45:39.356Z,96687.41
2023-05-09T02:48:08.990Z,96680.72
2023-05-09T02:50:38.246Z,96685.78
2023-05-09T02:53:06.277Z,96695.72
2023-05-09T02:55:38.414Z,96690.84
2023-05-09T02:58:13.290Z,96691.75
2023-05-09T03:00:42.323Z,96672.69
2023-05-09T03:03:10.167Z,96684.00
2023-05-09T03:05:38.200Z,96674.06
2023-05-09T03:08:06.536Z,96670.97
2023-05-09T03:10:35.655Z,96669.53
2023-05-09T03:13:03.514Z,96685.44
2023-05-09T03:15:31.359Z,96679.97
2023-05-09T03:17:59.069Z,96680.91
2023-05-09T03:20:27.788Z,96674.38
2023-05-09T03:22:55.638Z,96674.03
2023-05-09T03:25:26.179Z,96673.91
2023-05-09T03:27:55.344Z,96677.03
2023-05-09T03:30:23.059Z,96685.78
2023-05-09T03:32:50.873Z,96679.63
2023-05-09T03:35:18.751Z,96679.09
2023-05-09T03:37:46.461Z,96665.03
2023-05-09T03:40:14.400Z,96665.53
2023-05-09T03:42:42.130Z,96658.38
2023-05-09T03:45:12.592Z,96662.38
2023-05-09T03:47:40.573Z,96662.78
2023-05-09T03:50:09.592Z,96655.69
2023-05-09T03:52:37.519Z,96659.75
2023-05-09T03:55:05.982Z,96644.31
2023-05-09T03:57:35.599Z,96650.56
2023-05-09T04:00:04.880Z,96662.13
2023-05-09T04:02:34.443Z,96657.16
2023-05-09T04:05:04.406Z,96659.22
2023-05-09T04:07:32.751Z,96646.69
2023-05-09T04:10:01.145Z,96664.06
2023-05-09T04:12:28.874Z,96670.66
2023-05-09T04:14:56.652Z,96668.06
2023-05-09T04:17:24.812Z,96671.16
2023-05-09T04:19:54.121Z,96655.28
2023-05-09T04:22:22.173Z,96657.47
2023-05-09T04:24:50.143Z,96662.66
2023-05-09T04:27:17.862Z,96652.50
2023-05-09T04:29:45.647Z,96663.63
2023-05-09T04:32:14.642Z,96662.97
2023-05-09T04:34:42.493Z,96650.03
2023-05-09T04:37:11.896Z,96657.25
2023-05-09T04:39:39.715Z,96667.50
2023-05-09T04:42:07.577Z,96661.63
2023-05-09T04:44:35.853Z,96669.47
2023-05-09T04:47:03.644Z,96663.41
2023-05-09T04:49:31.353Z,96660.34
2023-05-09T04:51:59.309Z,96649.19
2023-05-09T04:54:28.440Z,96641.31
2023-05-09T04:57:03.154Z,96643.94
2023-05-09T04:59:34.570Z,96650.44
2023-05-09T05:02:02.293Z,96651.84
2023-05-09T05:04:30.155Z,96646.69
2023-05-09T05:06:57.930Z,96649.75
2023-05-09T05:09:25.991Z,96642.81
2023-05-09T05:12:01.772Z,96642.09
2023-05-09T05:14:31.116Z,96633.28
2023-05-09T05:16:58.808Z,96648.91
2023-05-09T05:19:26.608Z,96639.28
2023-05-09T05:21:57.423Z,96640.91
2023-05-09T05:24:25.251Z,96635.28
2023-05-09T05:26:52.970Z,96643.41
2023-05-09T05:29:22.345Z,96636.84
2023-05-09T05:31:50.101Z,96632.53
2023-05-09T05:34:18.288Z,96627.66
2023-05-09T05:36:46.514Z,96633.09
2023-05-09T05:39:14.234Z,96632.75
2023-05-09T05:41:42.001Z,96643.22
2023-05-09T05:44:09.699Z,96647.78
2023-05-09T05:46:38.778Z,96641.13
2023-05-09T05:49:06.522Z,96640.09
2023-05-09T05:51:34.484Z,96640.41
2023-05-09T05:54:02.357Z,96619.38
2023-05-09T05:56:30.092Z,96633.81
2023-05-09T05:58:57.815Z,96621.41
2023-05-09T06:01:25.706Z,96630.88
2023-05-09T06:03:56.130Z,96626.22
2023-05-09T06:06:24.429Z,96606.94
2023-05-09T06:08:52.105Z,96618.03
2023-05-09T06:11:21.194Z,96609.47
2023-05-09T06:13:48.928Z,96614.63
2023-05-09T06:16:19.841Z,96569.44
2023-05-09T06:18:48.313Z,96595.81
2023-05-09T06:21:17.444Z,96598.38
2023-05-09T06:24:01.289Z,96587.31
2023-05-09T06:26:30.066Z,96605.22
2023-05-09T06:28:57.943Z,96611.50
2023-05-09T06:31:26.205Z,96598.84
2023-05-09T06:33:54.004Z,96588.91
2023-05-09T06:36:23.212Z,96589.94
2023-05-09T06:38:50.973Z,96590.91
2023-05-09T06:41:18.708Z,96583.69
2023-05-09T06:43:46.654Z,96574.28
2023-05-09T06:46:14.492Z,96571.09
2023-05-09T06:48:42.413Z,96567.38
2023-05-09T06:51:11.456Z,96563.06
2023-05-09T06:53:40.821Z,96558.78
2023-05-09T06:56:08.778Z,96554.47
2023-05-09T06:58:36.547Z,96560.38
2023-05-09T07:01:06.452Z,96550.13
2023-05-09T07:03:34.313Z,96554.75
2023-05-09T07:06:02.075Z,96543.91
2023-05-09T07:08:29.845Z,96552.25
2023-05-09T07:10:59.232Z,96549.00
2023-05-09T07:13:27.022Z,96538.13
2023-05-09T07:15:54.791Z,96542.56
2023-05-09T07:18:22.695Z,96522.34
2023-05-09T07:20:51.018Z,96531.50
2023-05-09T07:23:18.716Z,96515.28
2023-05-09T07:25:46.640Z,96522.03
2023-05-09T07:28:15.787Z,96514.44
2023-05-09T07:30:43.760Z,96501.44
2023-05-09T07:33:11.703Z,96490.91
2023-05-09T07:35:39.576Z,96500.69
2023-05-09T07:38:07.666Z,96498.38
2023-05-09T07:40:36.564Z,96497.72
2023-05-09T07:43:04.298Z,96480.91
2023-05-09T07:45:33.632Z,96484.66
2023-05-09T07:48:01.576Z,96479.81
2023-05-09T07:50:29.357Z,96484.13
2023-05-09T07:52:57.076Z,96453.41
2023-05-09T07:55:24.870Z,96473.78
2023-05-09T07:57:52.663Z,96468.06
2023-05-09T08:00:23.493Z,96467.06
2023-05-09T08:02:53.426Z,96464.81
2023-05-09T08:05:21.294Z,96448.91
2023-05-09T08:07:49.102Z,96460.16
2023-05-09T08:10:17.241Z,96449.78
2023-05-09T08:12:45.025Z,96452.06
2023-05-09T08:15:13.389Z,96446.41
2023-05-09T08:17:41.337Z,96439.84
2023-05-09T08:20:13.400Z,96431.97
2023-05-09T08:22:41.694Z,96431.13
2023-05-09T08:25:10.153Z,96416.97
2023-05-09T08:27:37.919Z,96422.03
2023-05-09T08:30:07.026Z,96414.50
2023-05-09T08:32:34.915Z,96416.25
2023-05-09T08:35:02.783Z,96407.75
2023-05-09T08:37:31.922Z,96399.19
2023-05-09T08:39:59.829Z,96392.91
2023-05-09T08:42:29.081Z,96383.44
2023-05-09T08:44:57.165Z,96391.13
2023-05-09T08:47:26.032Z,96387.56
2023-05-09T08:49:54.259Z,96390.91
2023-05-09T08:52:22.683Z,96386.81
2023-05-09T08:54:53.358Z,96384.81
2023-05-09T08:57:21.344Z,96372.81
2023-05-09T08:59:50.762Z,96379.13
2023-05-09T09:02:19.140Z,96365.31
2023-05-09T09:04:47.152Z,96359.94
2023-05-09T09:07:18.719Z,96350.22
2023-05-09T09:09:48.172Z,96351.94
2023-05-09T09:12:18.707Z,96351.69
2023-05-09T09:14:50.494Z,96349.63
2023-05-09T09:17:21.475Z,96347.88
2023-05-09T09:19:51.307Z,96338.22
2023-05-09T09:22:20.830Z,96344.94
2023-05-09T09:24:48.920Z,96329.53
2023-05-09T09:27:18.837Z,96330.19
2023-05-09T09:29:46.661Z,96333.50
2023-05-09T09:32:14.589Z,96331.00
2023-05-09T09:34:42.451Z,96317.44
2023-05-09T09:37:10.207Z,96315.66
2023-05-09T09:39:38.140Z,96313.63
2023-05-09T09:42:13.107Z,96312.03
2023-05-09T09:44:42.220Z,96308.75
2023-05-09T09:47:11.510Z,96295.59
2023-05-09T09:49:46.265Z,96287.94
2023-05-09T09:52:25.129Z,96294.31
2023-05-09T09:54:56.104Z,96283.91
2023-05-09T09:57:35.968Z,96271.88
2023-05-09T10:00:06.360Z,96277.00
2023-05-09T10:02:34.210Z,96279.28
2023-05-09T10:05:08.507Z,96265.50
2023-05-09T10:07:39.154Z,96264.53
2023-05-09T10:10:07.936Z,96265.88
2023-05-09T10:12:41.760Z,96258.78
2023-05-09T10:15:13.414Z,96249.53
2023-05-09T10:17:41.714Z,96246.25
2023-05-09T10:20:10.864Z,96239.13
2023-05-09T10:22:42.137Z,96232.53
2023-05-09T10:25:16.110Z,96236.75
2023-05-09T10:27:48.054Z,96217.09
2023-05-09T10:30:19.998Z,96223.94
2023-05-09T10:32:53.082Z,96212.44
2023-05-09T10:35:25.701Z,96212.34
2023-05-09T10:37:56.915Z,96209.19
2023-05-09T10:40:25.235Z,96210.09
2023-05-09T10:42:52.993Z,96210.13
2023-05-09T10:45:23.166Z,96207.47
2023-05-09T10:47:53.019Z,96208.03
2023-05-09T10:50:22.527Z,96192.63
2023-05-09T10:53:14.244Z,96193.91
2023-05-09T10:55:50.841Z,96189.78
2023-05-09T10:58:23.798Z,96179.88
2023-05-09T11:00:55.353Z,96181.81
2023-05-09T11:03:25.975Z,96170.84
2023-05-09T11:05:55.494Z,96161.72
2023-05-09T11:08:26.697Z,96159.22
2023-05-09T11:10:55.616Z,96157.66
2023-05-09T11:13:25.297Z,96144.81
2023-05-09T11:16:22.000Z,96144.56
2023-05-09T11:18:55.965Z,96141.53
2023-05-09T11:21:23.803Z,96133.25
2023-05-09T11:23:55.356Z,96128.47
2023-05-09T11:26:23.562Z,96134.19
2023-05-09T11:28:54.976Z,96118.47
2023-05-09T11:31:24.129Z,96122.94
2023-05-09T11:33:58.331Z,96097.53
2023-05-09T11:36:32.007Z,96112.31
2023-05-09T11:39:07.727Z,96109.31
2023-05-09T11:41:41.235Z,96084.91
2023-05-09T11:44:16.874Z,96089.25
2023-05-09T11:46:46.341Z,96098.28
2023-05-09T11:49:14.325Z,96085.63
2023-05-09T11:51:42.699Z,96080.22
2023-05-09T11:54:14.871Z,96081.44
2023-05-09T11:56:43.093Z,96075.63
2023-05-09T11:59:13.239Z,96083.91
2023-05-09T12:01:43.644Z,96075.31
2023-05-09T12:04:13.002Z,96074.59
2023-05-09T12:06:48.656Z,96064.94
2023-05-09T12:09:16.575Z,96065.81
2023-05-09T12:11:50.098Z,96048.00
2023-05-09T12:14:28.106Z,96052.91
2023-05-09T12:16:55.976Z,96057.34
2023-05-09T12:19:26.182Z,96047.44
2023-05-09T12:21:58.058Z,96049.19
2023-05-09T12:24:26.724Z,96044.34
2023-05-09T12:26:54.776Z,96033.41
2023-05-09T12:29:23.714Z,96025.22
2023-05-09T12:31:53.229Z,96036.69
2023-05-09T12:34:21.489Z,96035.81
2023-05-09T12:36:51.766Z,96034.59
2023-05-09T12:39:21.945Z,96034.84
2023-05-09T12:42:01.059Z,96017.19
2023-05-09T12:44:30.126Z,96023.94
2023-05-09T12:46:59.788Z,96023.16
2023-05-09T12:49:28.301Z,96022.84
2023-05-09T12:52:04.408Z,96012.34
2023-05-09T12:54:32.850Z,96020.28
2023-05-09T12:57:01.186Z,96006.34
2023-05-09T12:59:31.346Z,96009.22
2023-05-09T13:02:01.955Z,96008.91
2023-05-09T13:04:30.108Z,96007.88
2023-05-09T13:07:00.070Z,96006.38
2023-05-09T13:09:28.469Z,96001.44
2023-05-09T13:11:56.480Z,95991.38
2023-05-09T13:14:24.663Z,95978.94
2023-05-09T13:16:52.628Z,95975.59
2023-05-09T13:19:22.753Z,95988.41
2023-05-09T13:21:50.581Z,95984.22
2023-05-09T13:24:19.684Z,95986.34
2023-05-09T13:26:47.603Z,95974.94
2023-05-09T13:29:15.567Z,95977.44
2023-05-09T13:31:43.349Z,95974.72
2023-05-09T13:34:11.100Z,95977.44
2023-05-09T13:36:38.964Z,95965.69
2023-05-09T13:39:06.832Z,95965.69
2023-05-09T13:41:37.546Z,95966.41
2023-05-09T13:44:06.228Z,95957.56
2023-05-09T13:46:35.229Z,95960.69
2023-05-09T13:49:03.141Z,95948.44
2023-05-09T13:51:30.959Z,95948.94
2023-05-09T13:53:58.738Z,95947.50
2023-05-09T13:56:26.612Z,95940.72
2023-05-09T13:58:55.720Z,95938.28
2023-05-09T14:01:23.718Z,95933.19
2023-05-09T14:03:52.794Z,95923.06
2023-05-09T14:06:20.748Z,95923.63
2023-05-09T14:08:48.602Z,95918.91
2023-05-09T14:11:16.461Z,95911.41
2023-05-09T14:13:44.312Z,95909.13
2023-05-09T14:16:13.753Z,95923.59
2023-05-09T14:18:41.669Z,95918.94
2023-05-09T14:21:09.473Z,95913.00
2023-05-09T14:23:37.202Z,95913.78
2023-05-09T14:26:05.065Z,95908.84
2023-05-09T14:28:32.878Z,95903.31
2023-05-09T14:31:00.760Z,95906.19
2023-05-09T14:33:29.950Z,95908.38
2023-05-09T14:35:57.702Z,95904.78
2023-05-09T14:38:25.467Z,95894.41
2023-05-09T14:40:53.156Z,95903.50
2023-05-09T14:43:22.226Z,95899.03
2023-05-09T14:45:49.989Z,95900.84
2023-05-09T14:48:17.810Z,95895.72
2023-05-09T14:50:46.972Z,95906.72
2023-05-09T14:53:15.043Z,95894.25
2023-05-09T14:55:43.387Z,95900.84
2023-05-09T14:58:13.715Z,95903.69
2023-05-09T15:00:41.950Z,95909.31
2023-05-09T15:03:10.233Z,95909.94
2023-05-09T15:05:38.247Z,95908.41
2023-05-09T15:08:08.012Z,95922.69
2023-05-09T15:10:35.966Z,95938.25
2023-05-09T15:13:05.807Z,95917.25
2023-05-09T15:15:33.815Z,95929.06
2023-05-09T15:18:02.591Z,95931.97
2023-05-09T15:20:30.435Z,95952.16
2023-05-09T15:22:58.295Z,95938.34
2023-05-09T15:25:27.651Z,95956.63
2023-05-09T15:27:55.457Z,95950.31
2023-05-09T15:30:23.369Z,95963.09
2023-05-09T15:32:51.184Z,95961.25
2023-05-09T15:35:19.542Z,95954.47
2023-05-09T15:37:47.509Z,95953.31
2023-05-09T15:40:15.878Z,95961.66
2023-05-09T15:42:48.305Z,95942.78
2023-05-09T15:45:16.804Z,95959.38
2023-05-09T15:47:44.530Z,95957.19
2023-05-09T15:50:13.266Z,95958.41
2023-05-09T15:52:41.136Z,95954.25
2023-05-09T15:55:10.746Z,95938.03
2023-05-09T15:57:38.621Z,95952.00
2023-05-09T16:00:10.046Z,95945.72
2023-05-09T16:02:37.875Z,95954.38
2023-05-09T16:05:06.149Z,95959.53
2023-05-09T16:07:35.761Z,95951.47
2023-05-09T16:10:03.924Z,95940.03
2023-05-09T16:12:32.837Z,95954.84
2023-05-09T16:15:03.430Z,95961.97
2023-05-09T16:17:33.385Z,95966.47
2023-05-09T16:20:01.994Z,95975.34
2023-05-09T16:22:29.906Z,95969.63
2023-05-09T16:24:57.715Z,95972.88
2023-05-09T16:27:25.506Z,95970.19
2023-05-09T16:29:53.310Z,95968.69
2023-05-09T16:32:21.165Z,95956.84
2023-05-09T16:34:50.754Z,95966.03
2023-05-09T16:37:19.258Z,95968.00
2023-05-09T16:39:47.108Z,95969.31
2023-05-09T16:42:14.900Z,95968.25
2023-05-09T16:44:42.706Z,95972.28
2023-05-09T16:47:10.502Z,95970.13
2023-05-09T16:49:38.745Z,95976.66
2023-05-09T16:52:07.855Z,95974.25
2023-05-09T16:54:36.085Z,95984.44
2023-05-09T16:57:03.784Z,95978.00
2023-05-09T16:59:32.791Z,95973.16
2023-05-09T17:02:00.586Z,95983.41
2023-05-09T17:04:29.324Z,95984.44
2023-05-09T17:06:57.139Z,95985.53
2023-05-09T17:09:26.593Z,95978.81
2023-05-09T17:11:54.343Z,95990.66
2023-05-09T17:14:22.321Z,95987.44
2023-05-09T17:16:50.148Z,95995.75
2023-05-09T17:19:19.046Z,95986.59
2023-05-09T17:21:46.854Z,95980.97
2023-05-09T17:24:14.683Z,95975.84
2023-05-09T17:26:43.866Z,95985.84
2023-05-09T17:29:11.652Z,95982.84
2023-05-09T17:31:39.445Z,95973.72
2023-05-09T17:34:07.300Z,95975.00
2023-05-09T17:36:35.030Z,95970.16
2023-05-09T17:39:02.767Z,95972.63
2023-05-09T17:41:30.588Z,95974.75
2023-05-09T17:43:59.731Z,95976.94
2023-05-09T17:46:27.517Z,95975.06
2023-05-09T17:48:55.275Z,95972.88
2023-05-09T17:51:25.707Z,95966.16
2023-05-09T17:53:53.698Z,95975.59
2023-05-09T17:56:22.423Z,95975.84
2023-05-09T17:58:52.989Z,95974.81
2023-05-09T18:01:22.506Z,95987.69
2023-05-09T18:03:50.455Z,95982.56
2023-05-09T18:06:19.270Z,95922.59
2023-05-09T18:08:47.213Z,95972.38
2023-05-09T18:11:15.506Z,95982.03
2023-05-09T18:13:43.227Z,95974.25
2023-05-09T18:16:10.990Z,95986.09
2023-05-09T18:18:42.590Z,95988.78
2023-05-09T18:21:10.428Z,95979.63
2023-05-09T18:23:38.244Z,95982.88
2023-05-09T18:26:06.153Z,95978.00
2023-05-09T18:28:39.411Z,95995.22
2023-05-09T18:31:09.385Z,95999.53
2023-05-09T18:33:41.936Z,95979.88
2023-05-09T18:36:11.258Z,95983.66
2023-05-09T18:38:39.789Z,95982.31
2023-05-09T18:41:09.116Z,96004.38
2023-05-09T18:43:38.764Z,95998.47
2023-05-09T18:46:07.532Z,96001.72
2023-05-09T18:48:35.410Z,96001.72
2023-05-09T18:51:04.858Z,95991.19
2023-05-09T18:53:32.674Z,95987.69
2023-05-09T18:56:01.954Z,96004.91
2023-05-09T18:58:29.691Z,96003.31
2023-05-09T19:00:57.520Z,95997.66
2023-05-09T19:03:25.419Z,96000.88
2023-05-09T19:05:53.226Z,95938.75
2023-05-09T19:08:22.502Z,95986.09
2023-05-09T19:10:50.464Z,96007.63
2023-05-09T19:13:18.457Z,95975.59
2023-05-09T19:15:49.068Z,96001.16
2023-05-09T19:18:16.783Z,95999.03
2023-05-09T19:20:44.655Z,96000.09
2023-05-09T19:23:12.500Z,96001.72
2023-05-09T19:25:41.914Z,95993.06
2023-05-09T19:28:11.080Z,95992.81
2023-05-09T19:30:38.818Z,96004.94
2023-05-09T19:33:06.767Z,96011.66
2023-05-09T19:35:34.726Z,96010.84
2023-05-09T19:38:02.528Z,96011.63
2023-05-09T19:40:30.273Z,96016.75
2023-05-09T19:42:59.383Z,96031.31
2023-05-09T19:45:28.841Z,95997.94
2023-05-09T19:47:58.904Z,96015.44
2023-05-09T19:50:26.753Z,96023.50
2023-05-09T19:52:54.779Z,96026.47
2023-05-09T19:55:23.084Z,96037.22
2023-05-09T19:57:51.166Z,96028.06
2023-05-09T20:00:22.908Z,96027.81
2023-05-09T20:02:50.770Z,96029.69
2023-05-09T20:05:18.581Z,96033.47
2023-05-09T20:07:46.428Z,96021.88
2023-05-09T20:10:15.632Z,96045.03
2023-05-09T20:12:43.598Z,96041.00
2023-05-09T20:15:12.126Z,96044.50
2023-05-09T20:17:41.247Z,96024.31
2023-05-09T20:20:10.851Z,96046.38
2023-05-09T20:22:38.642Z,96042.06
2023-05-09T20:25:07.042Z,96037.19
2023-05-09T20:27:35.477Z,96039.38
2023-05-09T20:30:03.674Z,96039.38
2023-05-09T20:32:31.898Z,96046.34
2023-05-09T20:35:01.008Z,96041.53
2023-05-09T20:37:28.848Z,96043.13
2023-05-09T20:39:56.672Z,96051.75
2023-05-09T20:42:24.444Z,96058.75
2023-05-09T20:44:52.191Z,96031.28
2023-05-09T20:47:19.990Z,96054.97
2023-05-09T20:49:47.745Z,96061.19
2023-05-09T20:52:16.908Z,96042.59
2023-05-09T20:54:44.659Z,96053.38
2023-05-09T20:57:12.347Z,96053.63
2023-05-09T20:59:40.660Z,96049.84
2023-05-09T21:02:08.910Z,96032.84
2023-05-09T21:04:36.785Z,96051.19
2023-05-09T21:07:04.516Z,96047.69
2023-05-09T21:09:33.667Z,96044.22
2023-05-09T21:12:03.671Z,96028.81
2023-05-09T21:14:31.762Z,96016.72
2023-05-09T21:16:59.515Z,96050.06
2023-05-09T21:19:27.320Z,96054.94
2023-05-09T21:21:55.843Z,96038.75
2023-05-09T21:24:23.572Z,96044.44
2023-05-09T21:26:53.393Z,96018.78
2023-05-09T21:29:21.493Z,96040.91
2023-05-09T21:31:49.231Z,96041.19
2023-05-09T21:34:16.943Z,96047.41
2023-05-09T21:36:44.650Z,96043.59
2023-05-09T21:39:12.366Z,96044.66
2023-05-09T21:41:42.700Z,96039.03
2023-05-09T21:44:12.308Z,96027.13
2023-05-09T21:46:41.118Z,96050.53
2023-05-09T21:49:08.981Z,96031.94
2023-05-09T21:51:36.738Z,96046.22
2023-05-09T21:54:04.544Z,96041.34
2023-05-09T21:56:32.341Z,96048.34
2023-05-09T21:59:00.048Z,96050.22
2023-05-09T22:01:29.400Z,96051.56
2023-05-09T22:03:57.503Z,96043.25
2023-05-09T22:06:25.377Z,96051.28
2023-05-09T22:08:53.080Z,96048.88
2023-05-09T22:11:21.150Z,96033.81
2023-05-09T22:13:48.954Z,96028.19
2023-05-09T22:16:17.459Z,96046.66
2023-05-09T22:18:46.678Z,96020.88
2023-05-09T22:21:14.404Z,96044.03
2023-05-09T22:23:42.175Z,96042.94
2023-05-09T22:26:09.929Z,96041.88
2023-05-09T22:28:38.057Z,96034.31
2023-05-09T22:31:06.985Z,96028.63
2023-05-09T22:33:34.951Z,96032.94
2023-05-09T22:36:04.281Z,96045.06
2023-05-09T22:38:32.011Z,96048.84
2023-05-09T22:40:59.742Z,96047.22
2023-05-09T22:43:33.823Z,96043.75
2023-05-09T22:46:06.831Z,96040.53
2023-05-09T22:48:34.649Z,96054.47
2023-05-09T22:51:02.433Z,96045.56
2023-05-09T22:53:32.711Z,96067.84
2023-05-09T22:56:00.794Z,96058.75
2023-05-09T22:58:28.561Z,96075.56
2023-05-09T23:00:56.383Z,96051.25
2023-05-09T23:03:24.315Z,96043.59
2023-05-09T23:05:52.345Z,96069.47
2023-05-09T23:08:20.283Z,96060.16
2023-05-09T23:10:49.396Z,96044.59
2023-05-09T23:13:17.190Z,96062.56
2023-05-09T23:15:45.254Z,96064.63
2023-05-09T23:18:13.004Z,96058.09
2023-05-09T23:20:40.758Z,96058.69
2023-05-09T23:23:08.798Z,96064.63
2023-05-09T23:25:36.520Z,96071.69
2023-05-09T23:28:05.884Z,96064.94
2023-05-09T23:30:33.611Z,96077.19
2023-05-09T23:33:01.518Z,96072.63
2023-05-09T23:35:29.235Z,96065.41
2023-05-09T23:37:57.008Z,96074.19
2023-05-09T23:40:24.696Z,96077.19
2023-05-09T23:42:52.427Z,96066.72
2023-05-09T23:45:22.001Z,96075.84
2023-05-09T23:47:50.154Z,96071.34
2023-05-09T23:50:18.331Z,96070.56
2023-05-09T23:52:49.270Z,96050.81
2023-05-09T23:55:17.310Z,96042.69
2023-05-09T23:57:45.056Z,96069.66
